Time,TemperatureF,DewpointF,PressureIn,WindDirection,WindDirectionDegrees,WindSpeedMPH,WindSpeedGustMPH,Humidity,HourlyPrecipIn,Conditions,Clouds,dailyrainin,SoftwareType,DateUTC
2013-07-19 00:00:00,65.5,65.2,30.11,WSW,251,1.0,1.0,99,0.00,,---,0.00,VWS V14.01,2013-07-19 04:00:00,
2013-07-19 00:01:00,65.5,65.2,30.11,WSW,251,0.0,1.0,99,0.00,,---,0.00,VWS V14.01,2013-07-19 04:01:00,
2013-07-19 00:06:00,65.4,65.1,30.11,WSW,251,1.0,1.0,99,0.00,,---,0.00,VWS V14.01,2013-07-19 04:06:00,
2013-07-19 00:11:00,65.4,65.1,30.11,WSW,251,1.0,2.0,99,0.00,,---,0.00,VWS V14.01,2013-07-19 04:11:00,
2013-07-19 00:16:00,65.5,65.5,30.11,WSW,251,0.0,0.0,100,0.00,,---,0.00,VWS V14.01,2013-07-19 04:16:00,
2013-07-19 00:21:00,65.7,65.7,30.11,WSW,251,1.0,2.0,100,0.00,,---,0.00,VWS V14.01,2013-07-19 04:21:00,
2013-07-19 00:26:00,65.8,65.5,30.11,WSW,251,0.0,0.0,99,0.00,,---,0.00,VWS V14.01,2013-07-19 04:26:00,
2013-07-19 00:31:00,65.8,65.5,30.11,WSW,251,0.0,0.0,99,0.00,,---,0.00,VWS V14.01,2013-07-19 04:31:00,
2013-07-19 00:36:00,65.6,65.3,30.11,WSW,251,0.0,0.0,99,0.00,,---,0.00,VWS V14.01,2013-07-19 04:36:00,
2013-07-19 00:41:00,65.6,65.3,30.10,WSW,251,0.0,0.0,99,0.00,,---,0.00,VWS V14.01,2013-07-19 04:41:00,
2013-07-19 00:46:00,65.6,65.3,30.10,WSW,251,0.0,0.0,99,0.00,,---,0.00,VWS V14.01,2013-07-19 04:46:00,
2013-07-19 00:51:00,65.5,65.2,30.10,WSW,251,0.0,0.0,99,0.00,,---,0.00,VWS V14.01,2013-07-19 04:51:00,
2013-07-19 00:56:00,65.2,64.9,30.10,WSW,251,0.0,1.0,99,0.00,,---,0.00,VWS V14.01,2013-07-19 04:56:00,
2013-07-19 01:01:00,65.0,64.7,30.10,WSW,251,0.0,0.0,99,0.00,,---,0.00,VWS V14.01,2013-07-19 05:01:00,
2013-07-19 01:06:00,64.9,64.9,30.10,WSW,251,0.0,0.0,100,0.00,,---,0.00,VWS V14.01,2013-07-19 05:06:00,
2013-07-19 01:11:00,64.9,64.9,30.10,WSW,251,0.0,2.0,100,0.00,,---,0.00,VWS V14.01,2013-07-19 05:11:00,
2013-07-19 01:16:00,64.9,64.9,30.10,WSW,251,1.0,2.0,100,0.00,,---,0.00,VWS V14.01,2013-07-19 05:16:00,
2013-07-19 01:21:00,64.9,64.9,30.10,WSW,251,1.0,1.0,100,0.00,,---,0.00,VWS V14.01,2013-07-19 05:21:00,
2013-07-19 01:26:00,65.0,65.0,30.10,WSW,251,1.0,1.0,100,0.00,,---,0.00,VWS V14.01,2013-07-19 05:26:00,
2013-07-19 01:31:00,64.9,64.9,30.10,WSW,251,1.0,1.0,100,0.00,,---,0.00,VWS V14.01,2013-07-19 05:31:00,
2013-07-19 01:36:00,64.8,64.8,30.09,WSW,251,0.0,0.0,100,0.00,,---,0.00,VWS V14.01,2013-07-19 05:36:00,
2013-07-19 01:41:00,64.7,64.7,30.09,WSW,251,0.0,1.0,100,0.00,,---,0.00,VWS V14.01,2013-07-19 05:41:00,
2013-07-19 01:46:00,64.9,64.9,30.09,WSW,251,0.0,0.0,100,0.00,,---,0.00,VWS V14.01,2013-07-19 05:46:00,
2013-07-19 01:51:00,64.6,64.6,30.09,WSW,251,0.0,0.0,100,0.00,,---,0.00,VWS V14.01,2013-07-19 05:51:00,
2013-07-19 01:56:00,64.5,64.5,30.09,WSW,251,0.0,0.0,100,0.00,,---,0.00,VWS V14.01,2013-07-19 05:56:00,
2013-07-19 02:01:00,64.6,64.6,30.09,WSW,251,0.0,0.0,100,0.00,,---,0.00,VWS V14.01,2013-07-19 06:01:00,
2013-07-19 02:06:00,64.6,64.6,30.09,WSW,251,1.0,1.0,100,0.00,,---,0.00,VWS V14.01,2013-07-19 06:06:00,
2013-07-19 02:11:00,64.7,64.7,30.09,WSW,251,1.0,1.0,100,0.00,,---,0.00,VWS V14.01,2013-07-19 06:11:00,
2013-07-19 02:16:00,64.7,64.7,30.08,WSW,251,0.0,1.0,100,0.00,,---,0.00,VWS V14.01,2013-07-19 06:16:00,
2013-07-19 02:21:00,64.7,64.7,30.08,WSW,251,0.0,0.0,100,0.00,,---,0.00,VWS V14.01,2013-07-19 06:21:00,
2013-07-19 02:26:00,64.7,64.7,30.08,WSW,251,1.0,1.0,100,0.00,,---,0.00,VWS V14.01,2013-07-19 06:26:00,
2013-07-19 02:31:00,64.8,64.8,30.08,WSW,251,0.0,0.0,100,0.00,,---,0.00,VWS V14.01,2013-07-19 06:31:00,
2013-07-19 02:36:00,64.9,64.9,30.07,WSW,251,0.0,0.0,100,0.00,,---,0.00,VWS V14.01,2013-07-19 06:36:00,
2013-07-19 02:41:00,65.0,65.0,30.07,WSW,251,0.0,0.0,100,0.00,,---,0.00,VWS V14.01,2013-07-19 06:41:00,
2013-07-19 02:46:00,64.9,64.9,30.08,WSW,251,0.0,0.0,100,0.00,,---,0.00,VWS V14.01,2013-07-19 06:46:00,
2013-07-19 02:51:00,64.9,64.9,30.07,WSW,251,0.0,0.0,100,0.00,,---,0.00,VWS V14.01,2013-07-19 06:51:00,
2013-07-19 02:56:00,64.9,64.9,30.07,WSW,251,0.0,0.0,100,0.00,,---,0.00,VWS V14.01,2013-07-19 06:56:00,
2013-07-19 03:01:00,64.7,64.7,30.07,WSW,251,0.0,0.0,100,0.00,,---,0.00,VWS V14.01,2013-07-19 07:01:00,
2013-07-19 03:06:00,64.5,64.5,30.07,WSW,251,0.0,1.0,100,0.00,,---,0.00,VWS V14.01,2013-07-19 07:06:00,
2013-07-19 03:11:00,64.4,64.4,30.07,WSW,251,0.0,0.0,100,0.00,,---,0.00,VWS V14.01,2013-07-19 07:11:00,
2013-07-19 03:16:00,64.3,64.3,30.07,WSW,251,0.0,0.0,100,0.00,,---,0.00,VWS V14.01,2013-07-19 07:16:00,
2013-07-19 03:21:00,64.2,64.2,30.07,WSW,251,0.0,0.0,100,0.00,,---,0.00,VWS V14.01,2013-07-19 07:21:00,
2013-07-19 03:26:00,64.2,64.2,30.07,WSW,251,0.0,0.0,100,0.00,,---,0.00,VWS V14.01,2013-07-19 07:26:00,
2013-07-19 03:31:00,64.1,64.1,30.07,WSW,251,0.0,0.0,100,0.00,,---,0.00,VWS V14.01,2013-07-19 07:31:00,
2013-07-19 03:36:00,64.0,64.0,30.07,WSW,251,1.0,2.0,100,0.00,,---,0.00,VWS V14.01,2013-07-19 07:36:00,
2013-07-19 03:41:00,64.0,64.0,30.07,WSW,251,1.0,1.0,100,0.00,,---,0.00,VWS V14.01,2013-07-19 07:41:00,
2013-07-19 03:46:00,63.9,63.9,30.07,WSW,251,1.0,2.0,100,0.00,,---,0.00,VWS V14.01,2013-07-19 07:46:00,
2013-07-19 03:51:00,63.9,63.9,30.07,WSW,251,1.0,2.0,100,0.00,,---,0.00,VWS V14.01,2013-07-19 07:51:00,
2013-07-19 03:56:00,63.8,63.8,30.06,WSW,251,1.0,2.0,100,0.00,,---,0.00,VWS V14.01,2013-07-19 07:56:00,
2013-07-19 04:01:00,63.7,63.7,30.07,WSW,251,1.0,2.0,100,0.00,,---,0.00,VWS V14.01,2013-07-19 08:01:00,
2013-07-19 04:06:00,63.6,63.6,30.06,WSW,251,1.0,2.0,100,0.00,,---,0.00,VWS V14.01,2013-07-19 08:06:00,
2013-07-19 04:11:00,63.6,63.6,30.06,WSW,251,1.0,2.0,100,0.00,,---,0.00,VWS V14.01,2013-07-19 08:11:00,
2013-07-19 04:16:00,63.6,63.6,30.06,WSW,251,1.0,2.0,100,0.00,,---,0.00,VWS V14.01,2013-07-19 08:16:00,
2013-07-19 04:21:00,63.6,63.6,30.06,WSW,251,1.0,1.0,100,0.00,,---,0.00,VWS V14.01,2013-07-19 08:21:00,
2013-07-19 04:26:00,63.6,63.6,30.06,WSW,251,1.0,1.0,100,0.00,,---,0.00,VWS V14.01,2013-07-19 08:26:00,
2013-07-19 04:31:00,63.6,63.6,30.06,WSW,251,1.0,2.0,100,0.00,,---,0.00,VWS V14.01,2013-07-19 08:31:00,
2013-07-19 04:36:00,63.6,63.6,30.06,WSW,251,0.0,1.0,100,0.00,,---,0.00,VWS V14.01,2013-07-19 08:36:00,
2013-07-19 04:41:00,63.6,63.6,30.06,WSW,251,0.0,0.0,100,0.00,,---,0.00,VWS V14.01,2013-07-19 08:41:00,
2013-07-19 04:46:00,63.7,63.7,30.06,WSW,251,0.0,1.0,100,0.00,,---,0.00,VWS V14.01,2013-07-19 08:46:00,
2013-07-19 04:51:00,63.9,63.9,30.06,WSW,251,1.0,1.0,100,0.00,,---,0.00,VWS V14.01,2013-07-19 08:51:00,
2013-07-19 04:56:00,63.7,63.4,30.06,WSW,251,0.0,1.0,99,0.00,,---,0.00,VWS V14.01,2013-07-19 08:56:00,
2013-07-19 05:01:00,63.6,63.3,30.06,WSW,251,1.0,1.0,99,0.00,,---,0.00,VWS V14.01,2013-07-19 09:01:00,
2013-07-19 05:06:00,63.6,63.3,30.06,WSW,251,1.0,2.0,99,0.00,,---,0.00,VWS V14.01,2013-07-19 09:06:00,
2013-07-19 05:11:00,63.6,63.3,30.06,WSW,251,0.0,1.0,99,0.00,,---,0.00,VWS V14.01,2013-07-19 09:11:00,
2013-07-19 05:16:00,63.5,62.9,30.06,WSW,251,0.0,1.0,98,0.00,,---,0.00,VWS V14.01,2013-07-19 09:16:00,
2013-07-19 05:21:00,63.5,62.6,30.06,WSW,251,0.0,0.0,97,0.00,,---,0.00,VWS V14.01,2013-07-19 09:21:00,
2013-07-19 05:26:00,63.6,63.0,30.06,WSW,251,0.0,1.0,98,0.00,,---,0.00,VWS V14.01,2013-07-19 09:26:00,
2013-07-19 05:31:00,63.5,62.9,30.05,WSW,251,1.0,2.0,98,0.00,,---,0.00,VWS V14.01,2013-07-19 09:31:00,
2013-07-19 05:36:00,63.4,62.8,30.06,WSW,251,1.0,2.0,98,0.00,,---,0.00,VWS V14.01,2013-07-19 09:36:00,
2013-07-19 05:41:00,63.3,63.0,30.06,WSW,251,0.0,1.0,99,0.00,,---,0.00,VWS V14.01,2013-07-19 09:41:00,
2013-07-19 05:46:00,63.1,62.8,30.06,WSW,251,0.0,0.0,99,0.00,,---,0.00,VWS V14.01,2013-07-19 09:46:00,
2013-07-19 05:51:00,63.0,62.7,30.06,WSW,251,1.0,2.0,99,0.00,,---,0.00,VWS V14.01,2013-07-19 09:51:00,
2013-07-19 05:56:00,62.8,62.5,30.06,WSW,251,0.0,0.0,99,0.00,,---,0.00,VWS V14.01,2013-07-19 09:56:00,
2013-07-19 06:01:00,62.7,62.4,30.06,WSW,251,0.0,1.0,99,0.00,,---,0.00,VWS V14.01,2013-07-19 10:01:00,
2013-07-19 06:06:00,62.6,62.6,30.06,WSW,251,0.0,0.0,100,0.00,,---,0.00,VWS V14.01,2013-07-19 10:06:00,
2013-07-19 06:11:00,62.5,62.5,30.06,WSW,251,0.0,0.0,100,0.00,,---,0.00,VWS V14.01,2013-07-19 10:11:00,
2013-07-19 06:16:00,62.4,62.4,30.06,WSW,251,0.0,1.0,100,0.00,,---,0.00,VWS V14.01,2013-07-19 10:16:00,
2013-07-19 06:21:00,62.5,62.5,30.06,WSW,251,1.0,2.0,100,0.00,,---,0.00,VWS V14.01,2013-07-19 10:21:00,
2013-07-19 06:26:00,62.4,62.4,30.06,WSW,251,1.0,1.0,100,0.00,,---,0.00,VWS V14.01,2013-07-19 10:26:00,
2013-07-19 06:31:00,62.3,62.3,30.06,WSW,251,2.0,3.0,100,0.00,,---,0.00,VWS V14.01,2013-07-19 10:31:00,
2013-07-19 06:36:00,62.3,62.3,30.06,WSW,251,2.0,2.0,100,0.00,,---,0.00,VWS V14.01,2013-07-19 10:36:00,
2013-07-19 06:41:00,62.5,62.5,30.06,WSW,251,2.0,2.0,100,0.00,,---,0.00,VWS V14.01,2013-07-19 10:41:00,
2013-07-19 06:46:00,62.5,62.5,30.06,WSW,255,2.0,2.0,100,0.00,,---,0.00,VWS V14.01,2013-07-19 10:46:00,
2013-07-19 06:51:00,62.5,62.5,30.06,West,259,1.0,3.0,100,0.01,,---,0.01,VWS V14.01,2013-07-19 10:51:00,
2013-07-19 06:56:00,62.5,62.5,30.06,West,259,1.0,2.0,100,0.01,,---,0.01,VWS V14.01,2013-07-19 10:56:00,
2013-07-19 07:01:00,62.6,62.6,30.06,West,259,1.0,2.0,100,0.01,,---,0.01,VWS V14.01,2013-07-19 11:01:00,
2013-07-19 07:06:00,62.6,62.6,30.06,West,259,1.0,2.0,100,0.01,,---,0.01,VWS V14.01,2013-07-19 11:06:00,
2013-07-19 07:11:00,62.6,62.6,30.06,West,259,1.0,1.0,100,0.01,,---,0.01,VWS V14.01,2013-07-19 11:11:00,
2013-07-19 07:16:00,62.7,62.7,30.07,West,259,2.0,2.0,100,0.01,,---,0.01,VWS V14.01,2013-07-19 11:16:00,
2013-07-19 07:21:00,62.8,62.8,30.07,West,259,0.0,1.0,100,0.01,,---,0.01,VWS V14.01,2013-07-19 11:21:00,
2013-07-19 07:26:00,63.0,63.0,30.07,West,259,1.0,2.0,100,0.01,,---,0.01,VWS V14.01,2013-07-19 11:26:00,
2013-07-19 07:31:00,63.3,63.3,30.07,West,259,0.0,1.0,100,0.01,,---,0.01,VWS V14.01,2013-07-19 11:31:00,
2013-07-19 07:36:00,63.5,63.5,30.07,West,259,0.0,1.0,100,0.01,,---,0.01,VWS V14.01,2013-07-19 11:36:00,
2013-07-19 07:41:00,63.9,63.9,30.07,West,259,2.0,2.0,100,0.01,,---,0.01,VWS V14.01,2013-07-19 11:41:00,
2013-07-19 07:46:00,64.1,63.8,30.07,West,259,2.0,2.0,99,0.01,,---,0.01,VWS V14.01,2013-07-19 11:46:00,
2013-07-19 07:51:00,64.4,64.1,30.07,West,259,2.0,2.0,99,0.00,,---,0.01,VWS V14.01,2013-07-19 11:51:00,
2013-07-19 07:56:00,64.8,64.5,30.08,West,259,0.0,2.0,99,0.00,,---,0.01,VWS V14.01,2013-07-19 11:56:00,
2013-07-19 08:01:00,64.9,64.3,30.08,West,259,0.0,2.0,98,0.00,,---,0.01,VWS V14.01,2013-07-19 12:01:00,
2013-07-19 08:06:00,65.6,65.3,30.08,West,259,1.0,2.0,99,0.00,,---,0.01,VWS V14.01,2013-07-19 12:06:00,
2013-07-19 08:11:00,65.9,65.6,30.08,West,259,1.0,1.0,99,0.00,,---,0.01,VWS V14.01,2013-07-19 12:11:00,
2013-07-19 08:16:00,65.9,65.3,30.08,West,260,1.0,2.0,98,0.00,,---,0.01,VWS V14.01,2013-07-19 12:16:00,
2013-07-19 08:21:00,66.4,66.1,30.08,West,260,1.0,2.0,99,0.00,,---,0.01,VWS V14.01,2013-07-19 12:21:00,
2013-07-19 08:26:00,66.5,65.9,30.08,West,260,1.0,1.0,98,0.00,,---,0.01,VWS V14.01,2013-07-19 12:26:00,
2013-07-19 08:31:00,66.5,65.9,30.08,West,260,0.0,1.0,98,0.00,,---,0.01,VWS V14.01,2013-07-19 12:31:00,
2013-07-19 08:36:00,66.7,66.4,30.08,West,260,1.0,1.0,99,0.00,,---,0.01,VWS V14.01,2013-07-19 12:36:00,
2013-07-19 08:41:00,67.0,66.4,30.08,NW,324,1.0,2.0,98,0.00,,---,0.01,VWS V14.01,2013-07-19 12:41:00,
2013-07-19 08:46:00,66.7,65.8,30.08,NW,324,1.0,2.0,97,0.00,,---,0.01,VWS V14.01,2013-07-19 12:46:00,
2013-07-19 08:51:00,67.3,66.7,30.09,NW,324,1.0,1.0,98,0.00,,---,0.01,VWS V14.01,2013-07-19 12:51:00,
2013-07-19 08:56:00,67.5,66.3,30.09,NW,318,1.0,2.0,96,0.00,,---,0.01,VWS V14.01,2013-07-19 12:56:00,
2013-07-19 09:01:00,68.3,67.1,30.09,NW,314,1.0,2.0,96,0.00,,---,0.01,VWS V14.01,2013-07-19 13:01:00,
2013-07-19 09:06:00,68.4,67.5,30.09,NNW,329,1.0,2.0,97,0.00,,---,0.01,VWS V14.01,2013-07-19 13:06:00,
2013-07-19 09:11:00,68.2,67.0,30.09,NW,317,0.0,1.0,96,0.00,,---,0.01,VWS V14.01,2013-07-19 13:11:00,
2013-07-19 09:16:00,68.5,67.3,30.09,NW,311,1.0,1.0,96,0.00,,---,0.01,VWS V14.01,2013-07-19 13:16:00,
2013-07-19 09:21:00,69.0,66.9,30.09,NW,311,1.0,1.0,93,0.00,,---,0.01,VWS V14.01,2013-07-19 13:21:00,
2013-07-19 09:26:00,69.5,67.7,30.09,NW,311,0.0,1.0,94,0.00,,---,0.01,VWS V14.01,2013-07-19 13:26:00,
2013-07-19 09:31:00,69.8,68.0,30.09,NW,318,0.0,3.0,94,0.00,,---,0.01,VWS V14.01,2013-07-19 13:31:00,
2013-07-19 09:36:00,69.7,67.6,30.09,NNW,332,0.0,1.0,93,0.00,,---,0.01,VWS V14.01,2013-07-19 13:36:00,
2013-07-19 09:41:00,70.3,66.9,30.09,NNW,327,1.0,5.0,89,0.00,,---,0.01,VWS V14.01,2013-07-19 13:41:00,
2013-07-19 09:46:00,70.3,67.6,30.10,NW,324,0.0,1.0,91,0.00,,---,0.01,VWS V14.01,2013-07-19 13:46:00,
2013-07-19 09:51:00,70.8,68.1,30.09,NW,322,0.0,3.0,91,0.00,,---,0.01,VWS V14.01,2013-07-19 13:51:00,
2013-07-19 09:56:00,70.4,67.3,30.10,NNW,339,1.0,2.0,90,0.00,,---,0.01,VWS V14.01,2013-07-19 13:56:00,
2013-07-19 10:01:00,71.0,67.9,30.10,NNW,328,0.0,1.0,90,0.00,,---,0.01,VWS V14.01,2013-07-19 14:01:00,
2013-07-19 10:06:00,71.5,68.4,30.10,NNW,328,0.0,1.0,90,0.00,,---,0.01,VWS V14.01,2013-07-19 14:06:00,
2013-07-19 10:11:00,72.4,68.7,30.09,NW,320,0.0,1.0,88,0.00,,---,0.01,VWS V14.01,2013-07-19 14:11:00,
2013-07-19 10:16:00,72.4,67.6,30.09,WSW,245,1.0,1.0,85,0.00,,---,0.01,VWS V14.01,2013-07-19 14:16:00,
2013-07-19 10:21:00,73.6,70.2,30.09,WSW,245,2.0,2.0,89,0.00,,---,0.01,VWS V14.01,2013-07-19 14:21:00,
2013-07-19 10:26:00,73.5,69.4,30.09,WSW,248,0.0,1.0,87,0.00,,---,0.01,VWS V14.01,2013-07-19 14:26:00,
2013-07-19 10:31:00,73.2,67.4,30.09,WSW,248,0.0,1.0,82,0.00,,---,0.01,VWS V14.01,2013-07-19 14:31:00,
2013-07-19 10:36:00,71.8,67.7,30.09,SW,228,1.0,4.0,87,0.00,,---,0.01,VWS V14.01,2013-07-19 14:36:00,
2013-07-19 10:41:00,70.9,67.8,30.09,WSW,255,1.0,2.0,90,0.00,,---,0.01,VWS V14.01,2013-07-19 14:41:00,
2013-07-19 10:46:00,70.2,66.8,30.09,WSW,254,0.0,1.0,89,0.00,,---,0.01,VWS V14.01,2013-07-19 14:46:00,
2013-07-19 10:51:00,72.4,68.7,30.09,WSW,254,0.0,1.0,88,0.00,,---,0.01,VWS V14.01,2013-07-19 14:51:00,
2013-07-19 10:56:00,73.2,66.3,30.09,WSW,254,1.0,1.0,79,0.00,,---,0.01,VWS V14.01,2013-07-19 14:56:00,
2013-07-19 11:01:00,73.3,67.8,30.09,WSW,254,1.0,1.0,83,0.00,,---,0.01,VWS V14.01,2013-07-19 15:01:00,
2013-07-19 11:06:00,74.1,68.3,30.09,SW,234,0.0,1.0,82,0.00,,---,0.01,VWS V14.01,2013-07-19 15:06:00,
2013-07-19 11:11:00,74.0,68.2,30.09,SW,234,0.0,1.0,82,0.00,,---,0.01,VWS V14.01,2013-07-19 15:11:00,
2013-07-19 11:16:00,73.5,64.7,30.09,SW,224,0.0,1.0,74,0.00,,---,0.01,VWS V14.01,2013-07-19 15:16:00,
2013-07-19 11:21:00,74.1,67.9,30.09,SW,217,1.0,1.0,81,0.00,,---,0.01,VWS V14.01,2013-07-19 15:21:00,
2013-07-19 11:26:00,75.7,68.0,30.09,WSW,242,0.0,1.0,77,0.00,,---,0.01,VWS V14.01,2013-07-19 15:26:00,
2013-07-19 11:31:00,74.5,66.8,30.09,WSW,242,1.0,1.0,77,0.00,,---,0.01,VWS V14.01,2013-07-19 15:31:00,
2013-07-19 11:36:00,73.6,67.4,30.09,NNW,331,0.0,1.0,81,0.00,,---,0.01,VWS V14.01,2013-07-19 15:36:00,
2013-07-19 11:41:00,72.5,64.9,30.09,NW,313,0.0,1.0,77,0.00,,---,0.01,VWS V14.01,2013-07-19 15:41:00,
2013-07-19 11:46:00,73.9,66.2,30.09,NW,314,1.0,1.0,77,0.00,,---,0.01,VWS V14.01,2013-07-19 15:46:00,
2013-07-19 11:51:00,72.6,65.3,30.09,NW,313,1.0,1.0,78,0.00,,---,0.01,VWS V14.01,2013-07-19 15:51:00,
2013-07-19 11:56:00,72.7,68.6,30.10,ENE,72,0.0,2.0,87,0.00,,---,0.01,VWS V14.01,2013-07-19 15:56:00,
2013-07-19 12:01:00,74.8,69.3,30.10,East,81,1.0,1.0,83,0.00,,---,0.01,VWS V14.01,2013-07-19 16:01:00,
2013-07-19 12:06:00,75.0,67.7,30.09,NW,311,0.0,1.0,78,0.00,,---,0.01,VWS V14.01,2013-07-19 16:06:00,
2013-07-19 12:11:00,75.8,68.8,30.09,NW,305,1.0,2.0,79,0.00,,---,0.01,VWS V14.01,2013-07-19 16:11:00,
2013-07-19 12:16:00,76.0,67.5,30.09,WNW,295,0.0,1.0,75,0.00,,---,0.01,VWS V14.01,2013-07-19 16:16:00,
2013-07-19 12:21:00,75.8,68.1,30.09,WNW,295,1.0,2.0,77,0.00,,---,0.01,VWS V14.01,2013-07-19 16:21:00,
2013-07-19 12:26:00,75.8,66.9,30.08,WNW,294,2.0,2.0,74,0.00,,---,0.01,VWS V14.01,2013-07-19 16:26:00,
2013-07-19 12:31:00,75.6,67.9,30.08,WNW,283,1.0,1.0,77,0.00,,---,0.01,VWS V14.01,2013-07-19 16:31:00,
2013-07-19 12:36:00,76.6,68.9,30.08,WNW,283,1.0,2.0,77,0.00,,---,0.01,VWS V14.01,2013-07-19 16:36:00,
2013-07-19 12:41:00,76.5,63.4,30.08,West,277,1.0,2.0,64,0.00,,---,0.01,VWS V14.01,2013-07-19 16:41:00,
2013-07-19 12:46:00,75.8,64.9,30.08,South,176,1.0,2.0,69,0.00,,---,0.01,VWS V14.01,2013-07-19 16:46:00,
2013-07-19 12:51:00,76.5,65.6,30.08,WNW,303,2.0,2.0,69,0.00,,---,0.01,VWS V14.01,2013-07-19 16:51:00,
2013-07-19 12:56:00,77.1,64.0,30.07,North,357,0.0,1.0,64,0.00,,---,0.01,VWS V14.01,2013-07-19 16:56:00,
2013-07-19 13:01:00,77.4,66.0,30.07,North,353,1.0,2.0,68,0.00,,---,0.01,VWS V14.01,2013-07-19 17:01:00,
2013-07-19 13:06:00,77.1,66.6,30.07,North,353,1.0,1.0,70,0.00,,---,0.01,VWS V14.01,2013-07-19 17:06:00,
2013-07-19 13:11:00,77.2,65.4,30.07,NW,320,1.0,3.0,67,0.00,,---,0.01,VWS V14.01,2013-07-19 17:11:00,
2013-07-19 13:16:00,76.4,63.8,30.06,West,264,1.0,2.0,65,0.00,,---,0.01,VWS V14.01,2013-07-19 17:16:00,
2013-07-19 13:21:00,76.0,63.0,30.07,NW,323,0.0,1.0,64,0.00,,---,0.01,VWS V14.01,2013-07-19 17:21:00,
2013-07-19 13:26:00,76.2,64.9,30.07,WSW,250,3.0,4.0,68,0.00,,---,0.01,VWS V14.01,2013-07-19 17:26:00,
2013-07-19 13:31:00,77.5,67.4,30.06,West,279,0.0,2.0,71,0.00,,---,0.01,VWS V14.01,2013-07-19 17:31:00,
2013-07-19 13:36:00,77.5,66.5,30.06,SSE,155,2.0,3.0,69,0.00,,---,0.01,VWS V14.01,2013-07-19 17:36:00,
2013-07-19 13:41:00,77.0,64.3,30.06,West,271,0.0,1.0,65,0.00,,---,0.01,VWS V14.01,2013-07-19 17:41:00,
2013-07-19 13:46:00,76.5,64.7,30.06,West,271,1.0,1.0,67,0.00,,---,0.01,VWS V14.01,2013-07-19 17:46:00,
2013-07-19 13:51:00,77.2,67.1,30.05,West,271,0.0,0.0,71,0.00,,---,0.01,VWS V14.01,2013-07-19 17:51:00,
2013-07-19 13:56:00,77.9,65.6,30.05,West,275,0.0,2.0,66,0.00,,---,0.01,VWS V14.01,2013-07-19 17:56:00,
2013-07-19 14:01:00,78.3,65.6,30.05,NNW,332,5.0,5.0,65,0.00,,---,0.01,VWS V14.01,2013-07-19 18:01:00,
2013-07-19 14:06:00,77.6,62.6,30.04,WSW,252,2.0,2.0,60,0.00,,---,0.01,VWS V14.01,2013-07-19 18:06:00,
2013-07-19 14:11:00,77.0,63.0,30.04,WNW,303,2.0,2.0,62,0.00,,---,0.01,VWS V14.01,2013-07-19 18:11:00,
2013-07-19 14:16:00,77.3,65.9,30.04,WNW,289,1.0,1.0,68,0.00,,---,0.01,VWS V14.01,2013-07-19 18:16:00,
2013-07-19 14:21:00,78.0,65.7,30.04,WNW,289,1.0,1.0,66,0.00,,---,0.01,VWS V14.01,2013-07-19 18:21:00,
2013-07-19 14:26:00,77.6,65.3,30.03,NW,326,1.0,1.0,66,0.00,,---,0.01,VWS V14.01,2013-07-19 18:26:00,
2013-07-19 14:31:00,76.4,65.9,30.03,NNW,327,0.0,1.0,70,0.00,,---,0.01,VWS V14.01,2013-07-19 18:31:00,
2013-07-19 14:36:00,75.2,67.9,30.03,NNW,327,0.0,0.0,78,0.00,,---,0.01,VWS V14.01,2013-07-19 18:36:00,
2013-07-19 14:41:00,74.4,66.0,30.03,NNW,327,0.0,1.0,75,0.00,,---,0.01,VWS V14.01,2013-07-19 18:41:00,
2013-07-19 14:46:00,74.5,66.8,30.03,NNW,327,0.0,1.0,77,0.00,,---,0.01,VWS V14.01,2013-07-19 18:46:00,
2013-07-19 14:51:00,75.1,63.8,30.02,NE,35,0.0,0.0,68,0.00,,---,0.01,VWS V14.01,2013-07-19 18:51:00,
2013-07-19 14:56:00,77.3,64.2,30.03,SSE,161,0.0,2.0,64,0.00,,---,0.01,VWS V14.01,2013-07-19 18:56:00,
2013-07-19 15:01:00,77.5,64.4,30.02,South,178,0.0,1.0,64,0.00,,---,0.01,VWS V14.01,2013-07-19 19:01:00,
2013-07-19 15:06:00,76.5,66.0,30.02,South,178,0.0,0.0,70,0.00,,---,0.01,VWS V14.01,2013-07-19 19:06:00,
2013-07-19 15:11:00,75.6,63.9,30.02,SE,143,0.0,1.0,67,0.00,,---,0.01,VWS V14.01,2013-07-19 19:11:00,
2013-07-19 15:16:00,76.0,65.5,30.02,SW,228,0.0,0.0,70,0.00,,---,0.01,VWS V14.01,2013-07-19 19:16:00,
2013-07-19 15:21:00,75.4,66.9,30.02,SW,230,0.0,1.0,75,0.00,,---,0.01,VWS V14.01,2013-07-19 19:21:00,
2013-07-19 15:26:00,75.5,63.4,30.02,West,263,0.0,0.0,66,0.00,,---,0.01,VWS V14.01,2013-07-19 19:26:00,
2013-07-19 15:31:00,74.9,64.5,30.01,West,263,1.0,1.0,70,0.00,,---,0.01,VWS V14.01,2013-07-19 19:31:00,
2013-07-19 15:36:00,75.1,64.7,30.01,SSW,212,3.0,3.0,70,0.00,,---,0.01,VWS V14.01,2013-07-19 19:36:00,
2013-07-19 15:41:00,74.5,67.2,30.01,SE,131,3.0,3.0,78,0.00,,---,0.01,VWS V14.01,2013-07-19 19:41:00,
2013-07-19 15:46:00,73.5,68.7,30.01,South,170,4.0,5.0,85,0.00,,---,0.01,VWS V14.01,2013-07-19 19:46:00,
2013-07-19 15:51:00,73.4,69.6,30.00,ESE,114,7.0,7.0,88,0.00,,---,0.01,VWS V14.01,2013-07-19 19:51:00,
2013-07-19 15:56:00,72.7,68.9,30.01,South,170,6.0,6.0,88,0.00,,---,0.01,VWS V14.01,2013-07-19 19:56:00,
2013-07-19 16:01:00,72.1,69.0,30.00,East,90,4.0,5.0,90,0.00,,---,0.01,VWS V14.01,2013-07-19 20:01:00,
2013-07-19 16:06:00,71.4,68.3,30.01,South,189,4.0,5.0,90,0.00,,---,0.01,VWS V14.01,2013-07-19 20:06:00,
2013-07-19 16:11:00,70.8,68.4,30.00,SE,133,1.0,3.0,92,0.00,,---,0.01,VWS V14.01,2013-07-19 20:11:00,
2013-07-19 16:16:00,70.8,68.7,30.00,ESE,120,5.0,5.0,93,0.00,,---,0.01,VWS V14.01,2013-07-19 20:16:00,
2013-07-19 16:21:00,71.9,68.8,30.00,South,173,4.0,5.0,90,0.00,,---,0.01,VWS V14.01,2013-07-19 20:21:00,
2013-07-19 16:26:00,72.6,68.8,30.00,SSE,162,3.0,4.0,88,0.00,,---,0.01,VWS V14.01,2013-07-19 20:26:00,
2013-07-19 16:31:00,73.0,69.2,30.00,South,170,6.0,6.0,88,0.00,,---,0.01,VWS V14.01,2013-07-19 20:31:00,
2013-07-19 16:36:00,72.5,68.1,30.00,SSE,162,4.0,4.0,86,0.00,,---,0.01,VWS V14.01,2013-07-19 20:36:00,
2013-07-19 16:41:00,72.3,68.2,30.00,South,174,5.0,6.0,87,0.00,,---,0.01,VWS V14.01,2013-07-19 20:41:00,
2013-07-19 16:46:00,71.7,67.6,30.00,SSE,166,4.0,5.0,87,0.00,,---,0.01,VWS V14.01,2013-07-19 20:46:00,
2013-07-19 16:51:00,70.8,67.4,30.00,South,173,3.0,5.0,89,0.00,,---,0.01,VWS V14.01,2013-07-19 20:51:00,
2013-07-19 16:56:00,70.5,67.8,30.00,SSE,159,5.0,5.0,91,0.00,,---,0.01,VWS V14.01,2013-07-19 20:56:00,
2013-07-19 17:01:00,70.5,67.4,30.00,SSE,164,5.0,7.0,90,0.00,,---,0.01,VWS V14.01,2013-07-19 21:01:00,
2013-07-19 17:06:00,70.9,68.2,29.99,SSE,157,2.0,3.0,91,0.00,,---,0.01,VWS V14.01,2013-07-19 21:06:00,
2013-07-19 17:11:00,71.1,67.7,29.99,South,180,4.0,4.0,89,0.00,,---,0.01,VWS V14.01,2013-07-19 21:11:00,
2013-07-19 17:16:00,71.2,68.4,29.99,SSE,153,2.0,3.0,91,0.00,,---,0.01,VWS V14.01,2013-07-19 21:16:00,
2013-07-19 17:21:00,70.8,67.4,29.99,SSE,166,3.0,5.0,89,0.00,,---,0.01,VWS V14.01,2013-07-19 21:21:00,
2013-07-19 17:26:00,70.4,66.7,29.99,SSE,160,4.0,5.0,88,0.00,,---,0.01,VWS V14.01,2013-07-19 21:26:00,
2013-07-19 17:31:00,70.3,66.9,29.99,SSE,168,5.0,5.0,89,0.00,,---,0.01,VWS V14.01,2013-07-19 21:31:00,
2013-07-19 17:36:00,70.1,66.7,29.99,SSE,150,4.0,4.0,89,0.00,,---,0.01,VWS V14.01,2013-07-19 21:36:00,
2013-07-19 17:41:00,70.1,67.0,29.99,SSE,156,5.0,6.0,90,0.00,,---,0.01,VWS V14.01,2013-07-19 21:41:00,
2013-07-19 17:46:00,69.9,66.5,29.99,SE,129,6.0,6.0,89,0.00,,---,0.01,VWS V14.01,2013-07-19 21:46:00,
2013-07-19 17:51:00,69.8,67.1,29.99,SSE,158,5.0,5.0,91,0.00,,---,0.01,VWS V14.01,2013-07-19 21:51:00,
2013-07-19 17:56:00,69.7,67.6,29.99,ESE,114,3.0,5.0,93,0.00,,---,0.01,VWS V14.01,2013-07-19 21:56:00,
2013-07-19 18:01:00,69.5,67.4,29.99,South,174,4.0,6.0,93,0.00,,---,0.01,VWS V14.01,2013-07-19 22:01:00,
2013-07-19 18:06:00,69.3,67.5,29.99,South,174,4.0,5.0,94,0.00,,---,0.01,VWS V14.01,2013-07-19 22:06:00,
2013-07-19 18:11:00,69.3,67.5,29.99,South,184,2.0,4.0,94,0.00,,---,0.01,VWS V14.01,2013-07-19 22:11:00,
2013-07-19 18:16:00,69.2,67.7,29.99,SE,144,3.0,3.0,95,0.00,,---,0.01,VWS V14.01,2013-07-19 22:16:00,
2013-07-19 18:21:00,69.2,67.7,29.99,SE,128,1.0,3.0,95,0.00,,---,0.01,VWS V14.01,2013-07-19 22:21:00,
2013-07-19 18:25:00,69.0,67.8,29.99,SSE,168,2.0,2.0,96,0.00,,---,0.01,VWS V14.01,2013-07-19 22:25:00,
2013-07-19 18:30:00,68.8,67.6,29.99,South,170,2.0,2.0,96,0.00,,---,0.01,VWS V14.01,2013-07-19 22:30:00,
2013-07-19 18:35:00,68.8,67.6,29.99,South,173,1.0,1.0,96,0.00,,---,0.01,VWS V14.01,2013-07-19 22:35:00,
2013-07-19 18:40:00,68.9,67.7,29.99,South,173,1.0,1.0,96,0.00,,---,0.01,VWS V14.01,2013-07-19 22:40:00,
2013-07-19 18:45:00,68.9,67.7,29.98,SSW,207,2.0,2.0,96,0.00,,---,0.01,VWS V14.01,2013-07-19 22:45:00,
2013-07-19 18:50:00,68.8,67.6,29.98,SE,143,2.0,2.0,96,0.00,,---,0.01,VWS V14.01,2013-07-19 22:50:00,
2013-07-19 18:55:00,68.7,67.5,29.98,SSE,157,2.0,2.0,96,0.00,,---,0.01,VWS V14.01,2013-07-19 22:55:00,
2013-07-19 19:00:00,68.7,67.5,29.98,SSE,164,2.0,2.0,96,0.00,,---,0.01,VWS V14.01,2013-07-19 23:00:00,
2013-07-19 19:05:00,68.7,67.2,29.98,SE,128,2.0,2.0,95,0.00,,---,0.01,VWS V14.01,2013-07-19 23:05:00,
2013-07-19 19:10:00,68.7,67.2,29.98,South,182,2.0,3.0,95,0.00,,---,0.01,VWS V14.01,2013-07-19 23:10:00,
2013-07-19 19:15:00,68.8,67.3,29.98,South,171,0.0,1.0,95,0.00,,---,0.01,VWS V14.01,2013-07-19 23:15:00,
2013-07-19 19:20:00,68.7,66.9,29.98,South,169,0.0,0.0,94,0.00,,---,0.01,VWS V14.01,2013-07-19 23:20:00,
2013-07-19 19:25:00,68.7,66.9,29.98,SSE,161,1.0,3.0,94,0.00,,---,0.01,VWS V14.01,2013-07-19 23:25:00,
2013-07-19 19:30:00,68.4,66.6,29.98,SE,142,0.0,0.0,94,0.00,,---,0.01,VWS V14.01,2013-07-19 23:30:00,
2013-07-19 19:35:00,68.4,66.3,29.98,SSE,158,0.0,0.0,93,0.00,,---,0.01,VWS V14.01,2013-07-19 23:35:00,
2013-07-19 19:40:00,68.4,66.3,29.98,SSE,158,1.0,1.0,93,0.00,,---,0.01,VWS V14.01,2013-07-19 23:40:00,
2013-07-19 19:45:00,68.5,66.1,29.98,WSW,240,0.0,0.0,92,0.00,,---,0.01,VWS V14.01,2013-07-19 23:45:00,
2013-07-19 19:50:00,68.2,66.1,29.99,WSW,240,1.0,1.0,93,0.00,,---,0.01,VWS V14.01,2013-07-19 23:50:00,
2013-07-19 19:55:00,68.1,66.0,29.99,WSW,240,1.0,1.0,93,0.00,,---,0.01,VWS V14.01,2013-07-19 23:55:00,
2013-07-19 20:00:00,67.7,65.9,29.98,WSW,240,1.0,2.0,94,0.00,,---,0.01,VWS V14.01,2013-07-20 00:00:00,
2013-07-19 20:05:00,67.6,65.8,29.98,WSW,240,0.0,0.0,94,0.00,,---,0.01,VWS V14.01,2013-07-20 00:05:00,
2013-07-19 20:10:00,67.5,65.4,29.99,WSW,240,0.0,0.0,93,0.00,,---,0.01,VWS V14.01,2013-07-20 00:10:00,
2013-07-19 20:15:00,67.7,65.3,29.99,WSW,240,0.0,1.0,92,0.00,,---,0.01,VWS V14.01,2013-07-20 00:15:00,
2013-07-19 20:20:00,67.8,65.4,29.99,WSW,240,0.0,0.0,92,0.00,,---,0.01,VWS V14.01,2013-07-20 00:20:00,
2013-07-19 20:25:00,67.8,65.4,29.99,WSW,240,0.0,0.0,92,0.00,,---,0.01,VWS V14.01,2013-07-20 00:25:00,
2013-07-19 20:30:00,67.7,65.3,29.99,WSW,240,1.0,1.0,92,0.00,,---,0.01,VWS V14.01,2013-07-20 00:30:00,
2013-07-19 20:35:00,67.7,65.3,29.99,WSW,240,1.0,2.0,92,0.00,,---,0.01,VWS V14.01,2013-07-20 00:35:00,
2013-07-19 20:40:00,67.2,65.1,29.99,WSW,240,1.0,2.0,93,0.00,,---,0.01,VWS V14.01,2013-07-20 00:40:00,
2013-07-19 20:45:00,67.1,65.6,29.99,WSW,240,0.0,0.0,95,0.00,,---,0.01,VWS V14.01,2013-07-20 00:45:00,
2013-07-19 20:50:00,67.2,65.7,29.99,WSW,240,0.0,0.0,95,0.00,,---,0.01,VWS V14.01,2013-07-20 00:50:00,
2013-07-19 20:55:00,67.3,65.8,29.99,WSW,240,0.0,0.0,95,0.00,,---,0.01,VWS V14.01,2013-07-20 00:55:00,
2013-07-19 21:00:00,67.2,65.7,29.99,WSW,240,1.0,1.0,95,0.00,,---,0.01,VWS V14.01,2013-07-20 01:00:00,
2013-07-19 21:05:00,66.9,65.4,29.99,WSW,251,1.0,1.0,95,0.00,,---,0.01,VWS V14.01,2013-07-20 01:05:00,
2013-07-19 21:10:00,66.6,65.1,30.00,WSW,251,0.0,0.0,95,0.00,,---,0.01,VWS V14.01,2013-07-20 01:10:00,
2013-07-19 21:15:00,66.5,65.0,29.99,WSW,251,0.0,0.0,95,0.00,,---,0.01,VWS V14.01,2013-07-20 01:15:00,
2013-07-19 21:20:00,66.8,65.3,29.99,WSW,251,0.0,0.0,95,0.00,,---,0.01,VWS V14.01,2013-07-20 01:20:00,
2013-07-19 21:25:00,66.8,65.3,29.99,WSW,251,0.0,0.0,95,0.00,,---,0.01,VWS V14.01,2013-07-20 01:25:00,
2013-07-19 21:30:00,66.5,65.0,30.00,WSW,251,0.0,0.0,95,0.00,,---,0.01,VWS V14.01,2013-07-20 01:30:00,
2013-07-19 21:35:00,66.3,64.8,30.00,WSW,251,0.0,0.0,95,0.00,,---,0.01,VWS V14.01,2013-07-20 01:35:00,
2013-07-19 21:40:00,66.2,64.7,30.00,WSW,251,0.0,0.0,95,0.00,,---,0.01,VWS V14.01,2013-07-20 01:40:00,
2013-07-19 21:45:00,66.5,65.0,30.00,WSW,251,0.0,0.0,95,0.00,,---,0.01,VWS V14.01,2013-07-20 01:45:00,
2013-07-19 21:50:00,66.7,64.9,30.00,WSW,251,0.0,0.0,94,0.00,,---,0.01,VWS V14.01,2013-07-20 01:50:00,
2013-07-19 21:55:00,66.6,65.1,30.00,WSW,251,0.0,0.0,95,0.00,,---,0.01,VWS V14.01,2013-07-20 01:55:00,
2013-07-19 22:00:00,66.2,64.7,30.01,WSW,251,0.0,0.0,95,0.00,,---,0.01,VWS V14.01,2013-07-20 02:00:00,
2013-07-19 22:05:00,65.9,65.0,30.01,WSW,251,0.0,0.0,97,0.00,,---,0.01,VWS V14.01,2013-07-20 02:05:00,
2013-07-19 22:10:00,65.9,64.7,30.01,WSW,238,0.0,0.0,96,0.00,,---,0.01,VWS V14.01,2013-07-20 02:10:00,
2013-07-19 22:15:00,65.7,64.8,30.01,WSW,238,0.0,0.0,97,0.00,,---,0.01,VWS V14.01,2013-07-20 02:15:00,
2013-07-19 22:20:00,65.8,64.9,30.01,SW,219,1.0,1.0,97,0.00,,---,0.01,VWS V14.01,2013-07-20 02:20:00,
2013-07-19 22:25:00,65.6,65.0,30.01,SW,219,2.0,2.0,98,0.00,,---,0.01,VWS V14.01,2013-07-20 02:25:00,
2013-07-19 22:30:00,65.5,64.9,30.01,SW,219,1.0,1.0,98,0.00,,---,0.01,VWS V14.01,2013-07-20 02:30:00,
2013-07-19 22:35:00,65.6,65.0,30.01,SW,218,0.0,0.0,98,0.00,,---,0.01,VWS V14.01,2013-07-20 02:35:00,
2013-07-19 22:40:00,66.1,65.5,30.01,SW,218,0.0,1.0,98,0.00,,---,0.01,VWS V14.01,2013-07-20 02:40:00,
2013-07-19 22:45:00,66.4,65.5,30.01,SW,218,0.0,1.0,97,0.00,,---,0.01,VWS V14.01,2013-07-20 02:45:00,
2013-07-19 22:50:00,66.6,65.7,30.01,SW,218,1.0,2.0,97,0.00,,---,0.01,VWS V14.01,2013-07-20 02:50:00,
2013-07-19 22:55:00,66.7,65.5,30.01,SW,218,0.0,0.0,96,0.00,,---,0.01,VWS V14.01,2013-07-20 02:55:00,
2013-07-19 23:00:00,66.7,65.5,30.01,SW,218,0.0,0.0,96,0.00,,---,0.01,VWS V14.01,2013-07-20 03:00:00,
2013-07-19 23:05:00,66.7,65.8,30.02,SW,218,0.0,0.0,97,0.00,,---,0.01,VWS V14.01,2013-07-20 03:05:00,
2013-07-19 23:10:00,66.6,65.4,30.02,West,270,0.0,0.0,96,0.00,,---,0.01,VWS V14.01,2013-07-20 03:10:00,
2013-07-19 23:15:00,66.5,65.6,30.02,West,270,1.0,1.0,97,0.00,,---,0.01,VWS V14.01,2013-07-20 03:15:00,
2013-07-19 23:20:00,66.2,65.3,30.01,West,270,0.0,1.0,97,0.00,,---,0.01,VWS V14.01,2013-07-20 03:20:00,
2013-07-19 23:25:00,66.0,65.1,30.01,West,270,0.0,0.0,97,0.00,,---,0.01,VWS V14.01,2013-07-20 03:25:00,
2013-07-19 23:30:00,65.9,65.0,30.02,West,270,0.0,0.0,97,0.00,,---,0.01,VWS V14.01,2013-07-20 03:30:00,
2013-07-19 23:35:00,65.8,64.9,30.01,West,270,0.0,0.0,97,0.00,,---,0.01,VWS V14.01,2013-07-20 03:35:00,
2013-07-19 23:40:00,65.7,64.8,30.01,West,270,0.0,0.0,97,0.00,,---,0.01,VWS V14.01,2013-07-20 03:40:00,
2013-07-19 23:45:00,65.6,64.7,30.02,West,270,0.0,0.0,97,0.00,,---,0.01,VWS V14.01,2013-07-20 03:45:00,
2013-07-19 23:50:00,65.5,64.9,30.02,West,270,0.0,0.0,98,0.00,,---,0.01,VWS V14.01,2013-07-20 03:50:00,
2013-07-19 23:55:00,65.6,65.0,30.02,West,270,0.0,0.0,98,0.00,,---,0.01,VWS V14.01,2013-07-20 03:55:00,